createdAt,value
2022-09-28T00:00:27.849Z,69.44
2022-09-28T00:01:27.877Z,66.65
2022-09-28T00:02:27.986Z,69.34
2022-09-28T00:03:27.813Z,68.01
2022-09-28T00:04:27.800Z,66.74
2022-09-28T00:05:27.781Z,68.11
2022-09-28T00:06:27.766Z,65.96
2022-09-28T00:07:27.797Z,67.45
2022-09-28T00:08:27.786Z,65.80
2022-09-28T00:09:27.729Z,63.09
2022-09-28T00:10:27.705Z,64.20
2022-09-28T00:11:27.682Z,69.28
2022-09-28T00:12:27.683Z,67.61
2022-09-28T00:13:27.624Z,67.08
2022-09-28T00:14:27.625Z,64.52
2022-09-28T00:15:27.589Z,65.85
2022-09-28T00:16:27.630Z,66.41
2022-09-28T00:17:27.593Z,68.03
2022-09-28T00:18:27.548Z,65.99
2022-09-28T00:19:27.523Z,67.37
2022-09-28T00:20:27.512Z,65.71
2022-09-28T00:21:27.504Z,66.68
2022-09-28T00:22:27.516Z,66.30
2022-09-28T00:23:27.468Z,65.92
2022-09-28T00:24:27.880Z,66.27
2022-09-28T00:25:28.426Z,66.46
2022-09-28T00:26:27.447Z,64.97
2022-09-28T00:27:27.420Z,67.07
2022-09-28T00:28:27.371Z,68.73
2022-09-28T00:29:27.371Z,69.05
2022-09-28T00:30:27.338Z,68.28
2022-09-28T00:31:27.355Z,65.17
2022-09-28T00:32:27.329Z,65.22
2022-09-28T00:33:27.284Z,65.72
2022-09-28T00:34:27.259Z,66.95
2022-09-28T00:35:27.253Z,67.05
2022-09-28T00:36:27.236Z,65.98
2022-09-28T00:37:27.249Z,66.33
2022-09-28T00:38:27.219Z,68.00
2022-09-28T00:39:27.279Z,65.99
2022-09-28T00:40:27.279Z,67.12
2022-09-28T00:41:27.170Z,68.80
2022-09-28T00:42:27.167Z,68.07
2022-09-28T00:43:27.118Z,67.45
2022-09-28T00:44:27.145Z,65.92
2022-09-28T00:45:27.160Z,67.17
2022-09-28T00:46:27.082Z,65.73
2022-09-28T00:47:27.098Z,68.20
2022-09-28T00:48:27.054Z,67.43
2022-09-28T00:49:27.010Z,67.24
2022-09-28T00:50:28.012Z,66.19
2022-09-28T00:51:26.997Z,68.35
2022-09-28T00:52:27.000Z,67.63
2022-09-28T00:53:26.970Z,66.31
2022-09-28T00:54:26.920Z,66.01
2022-09-28T00:55:26.915Z,65.77
2022-09-28T00:56:26.900Z,67.45
2022-09-28T00:57:26.910Z,66.09
2022-09-28T00:58:26.862Z,67.15
2022-09-28T00:59:26.872Z,64.96
2022-09-28T01:00:26.838Z,67.67
2022-09-28T01:01:26.880Z,64.18
2022-09-28T01:02:26.853Z,66.64
2022-09-28T01:03:26.779Z,67.71
2022-09-28T01:04:29.810Z,67.62
2022-09-28T01:05:27.730Z,67.13
2022-09-28T01:06:26.717Z,65.27
2022-09-28T01:07:26.728Z,67.08
2022-09-28T01:08:26.701Z,68.43
2022-09-28T01:09:26.670Z,67.26
2022-09-28T01:10:26.645Z,66.93
2022-09-28T01:11:27.680Z,66.39
2022-09-28T01:12:26.620Z,67.15
2022-09-28T01:13:26.593Z,67.21
2022-09-28T01:14:26.592Z,69.02
2022-09-28T01:15:26.559Z,69.27
2022-09-28T01:16:26.584Z,68.23
2022-09-28T01:17:26.566Z,69.75
2022-09-28T01:18:26.520Z,66.64
2022-09-28T01:19:26.492Z,66.06
2022-09-28T01:20:26.482Z,69.05
2022-09-28T01:21:26.479Z,65.55
2022-09-28T01:22:26.481Z,68.65
2022-09-28T01:23:26.475Z,65.82
2022-09-28T01:24:26.419Z,65.99
2022-09-28T01:25:26.404Z,66.65
2022-09-28T01:26:26.385Z,68.28
2022-09-28T01:27:26.394Z,67.69
2022-09-28T01:28:26.338Z,68.86
2022-09-28T01:29:26.339Z,65.59
2022-09-28T01:30:26.319Z,66.40
2022-09-28T01:31:26.406Z,66.07
2022-09-28T01:32:26.277Z,67.90
2022-09-28T01:33:26.273Z,67.98
2022-09-28T01:34:26.249Z,67.69
2022-09-28T01:35:26.232Z,68.03
2022-09-28T01:36:26.239Z,65.63
2022-09-28T01:37:26.194Z,67.66
2022-09-28T01:38:26.195Z,67.22
2022-09-28T01:39:26.163Z,66.91
2022-09-28T01:40:26.237Z,68.39
2022-09-28T01:41:26.172Z,67.64
2022-09-28T01:42:26.126Z,67.35
2022-09-28T01:43:26.087Z,67.48
2022-09-28T01:44:26.082Z,68.54
2022-09-28T01:45:26.069Z,67.55
2022-09-28T01:46:26.111Z,66.83
2022-09-28T01:47:26.023Z,66.79
2022-09-28T01:48:26.016Z,68.58
2022-09-28T01:49:26.986Z,66.99
2022-09-28T01:50:25.976Z,66.24
2022-09-28T01:51:25.985Z,65.45
2022-09-28T01:52:26.005Z,68.47
2022-09-28T01:53:25.929Z,68.38
2022-09-28T01:54:25.906Z,65.29
2022-09-28T01:55:25.874Z,68.74
2022-09-28T01:56:25.870Z,65.45
2022-09-28T01:57:25.945Z,64.88
2022-09-28T01:58:25.841Z,68.15
2022-09-28T01:59:25.806Z,67.27
2022-09-28T02:00:25.930Z,68.16
2022-09-28T02:01:25.783Z,67.86
2022-09-28T02:02:25.856Z,66.70
2022-09-28T02:03:25.748Z,67.57
2022-09-28T02:04:25.754Z,67.74
2022-09-28T02:05:25.722Z,66.75
2022-09-28T02:06:25.685Z,66.33
2022-09-28T02:07:25.696Z,67.92
2022-09-28T02:08:25.655Z,66.71
2022-09-28T02:09:27.007Z,68.06
2022-09-28T02:10:25.622Z,67.65
2022-09-28T02:11:25.622Z,69.78
2022-09-28T02:12:25.619Z,68.61
2022-09-28T02:13:25.579Z,65.78
2022-09-28T02:14:25.551Z,65.66
2022-09-28T02:15:25.555Z,67.06
2022-09-28T02:16:25.598Z,66.01
2022-09-28T02:17:25.545Z,65.83
2022-09-28T02:18:25.500Z,65.47
2022-09-28T02:19:25.482Z,69.69
2022-09-28T02:20:25.455Z,69.29
2022-09-28T02:21:25.440Z,68.76
2022-09-28T02:22:25.459Z,66.46
2022-09-28T02:23:25.402Z,68.65
2022-09-28T02:24:25.397Z,67.80
2022-09-28T02:25:25.371Z,66.88
2022-09-28T02:26:25.351Z,68.53
2022-09-28T02:27:25.373Z,67.18
2022-09-28T02:28:25.315Z,68.22
2022-09-28T02:29:25.304Z,69.59
2022-09-28T02:30:25.279Z,67.98
2022-09-28T02:31:25.307Z,67.73
2022-09-28T02:32:25.270Z,69.02
2022-09-28T02:33:25.249Z,69.52
2022-09-28T02:34:25.207Z,68.01
2022-09-28T02:35:25.202Z,68.64
2022-09-28T02:36:25.190Z,66.31
2022-09-28T02:37:25.194Z,68.60
2022-09-28T02:38:25.141Z,68.24
2022-09-28T02:39:25.142Z,69.17
2022-09-28T02:40:25.180Z,67.95
2022-09-28T02:41:25.106Z,70.44
2022-09-28T02:42:25.126Z,69.57
2022-09-28T02:43:25.054Z,68.60
2022-09-28T02:44:25.038Z,68.71
2022-09-28T02:45:25.082Z,68.00
2022-09-28T02:46:24.994Z,68.20
2022-09-28T02:47:26.032Z,68.40
2022-09-28T02:48:42.728Z,68.24
2022-09-28T02:49:26.970Z,65.86
2022-09-28T02:50:24.938Z,66.62
2022-09-28T02:51:24.927Z,65.19
2022-09-28T02:52:24.935Z,67.44
2022-09-28T02:53:24.882Z,67.95
2022-09-28T02:54:24.876Z,66.84
2022-09-28T02:55:24.850Z,67.38
2022-09-28T02:56:24.838Z,68.47
2022-09-28T02:57:24.851Z,68.25
2022-09-28T02:58:24.800Z,70.63
2022-09-28T02:59:24.793Z,67.82
2022-09-28T03:00:24.771Z,69.34
2022-09-28T03:01:24.825Z,67.36
2022-09-28T03:02:24.786Z,67.28
2022-09-28T03:03:24.750Z,68.79
2022-09-28T03:04:24.706Z,68.66
2022-09-28T03:05:24.761Z,67.36
2022-09-28T03:06:24.665Z,65.36
2022-09-28T03:07:24.677Z,67.97
2022-09-28T03:08:24.628Z,68.36
2022-09-28T03:09:24.625Z,68.91
2022-09-28T03:10:24.701Z,68.57
2022-09-28T03:11:24.590Z,69.42
2022-09-28T03:12:24.595Z,67.05
2022-09-28T03:13:24.546Z,67.81
2022-09-28T03:14:24.525Z,67.58
2022-09-28T03:15:24.513Z,68.60
2022-09-28T03:16:24.534Z,68.38
2022-09-28T03:17:24.507Z,67.89
2022-09-28T03:18:24.474Z,67.15
2022-09-28T03:19:24.446Z,67.09
2022-09-28T03:20:24.439Z,67.57
2022-09-28T03:21:24.415Z,66.91
2022-09-28T03:22:24.423Z,65.03
2022-09-28T03:23:25.446Z,67.69
2022-09-28T03:24:25.353Z,67.61
2022-09-28T03:25:24.344Z,68.84
2022-09-28T03:26:24.348Z,68.38
2022-09-28T03:27:24.339Z,68.43
2022-09-28T03:28:24.299Z,70.47
2022-09-28T03:29:24.303Z,66.45
2022-09-28T03:30:24.270Z,68.23
2022-09-28T03:31:24.338Z,67.53
2022-09-28T03:32:24.269Z,69.42
2022-09-28T03:33:24.227Z,66.60
2022-09-28T03:34:24.190Z,66.15
2022-09-28T03:35:24.163Z,69.00
2022-09-28T03:36:24.165Z,68.98
2022-09-28T03:37:24.154Z,68.06
2022-09-28T03:38:24.127Z,68.11
2022-09-28T03:39:24.120Z,68.21
2022-09-28T03:40:24.111Z,69.34
2022-09-28T03:41:24.085Z,68.58
2022-09-28T03:42:25.199Z,68.17
2022-09-28T03:43:24.055Z,66.61
2022-09-28T03:44:24.013Z,67.50
2022-09-28T03:45:24.030Z,68.64
2022-09-28T03:46:23.970Z,67.40
2022-09-28T03:47:23.993Z,68.78
2022-09-28T03:48:26.666Z,68.91
2022-09-28T03:49:24.924Z,66.99
2022-09-28T03:50:23.906Z,67.58
2022-09-28T03:51:23.914Z,70.06
2022-09-28T03:52:23.902Z,68.58
2022-09-28T03:53:23.859Z,66.78
2022-09-28T03:54:23.841Z,67.98
2022-09-28T03:55:23.820Z,68.78
2022-09-28T03:56:23.797Z,68.04
2022-09-28T03:57:23.827Z,66.95
2022-09-28T03:58:23.779Z,66.61
2022-09-28T03:59:23.755Z,66.55
2022-09-28T04:00:23.748Z,69.41
2022-09-28T04:01:23.741Z,68.32
2022-09-28T04:02:23.956Z,67.71
2022-09-28T04:03:23.694Z,68.69
2022-09-28T04:04:23.720Z,68.17
2022-09-28T04:05:23.667Z,68.23
2022-09-28T04:06:23.652Z,68.81
2022-09-28T04:07:26.859Z,67.83
2022-09-28T04:08:24.599Z,65.95
2022-09-28T04:09:23.607Z,66.95
2022-09-28T04:10:23.560Z,65.57
2022-09-28T04:11:23.549Z,68.96
2022-09-28T04:12:23.575Z,70.47
2022-09-28T04:13:23.509Z,66.73
2022-09-28T04:14:23.501Z,69.19
2022-09-28T04:15:23.490Z,69.11
2022-09-28T04:16:23.493Z,67.42
2022-09-28T04:17:23.481Z,66.19
2022-09-28T04:18:23.461Z,66.05
2022-09-28T04:19:23.420Z,67.71
2022-09-28T04:20:23.425Z,66.24
2022-09-28T04:21:23.410Z,66.90
2022-09-28T04:22:23.419Z,66.50
2022-09-28T04:23:23.363Z,68.02
2022-09-28T04:24:23.352Z,67.84
2022-09-28T04:25:23.318Z,68.48
2022-09-28T04:26:23.290Z,66.61
2022-09-28T04:27:23.316Z,66.93
2022-09-28T04:28:23.266Z,66.95
2022-09-28T04:29:23.269Z,68.83
2022-09-28T04:30:23.247Z,69.34
2022-09-28T04:31:23.252Z,65.64
2022-09-28T04:32:23.230Z,68.47
2022-09-28T04:33:23.253Z,67.53
2022-09-28T04:34:23.166Z,67.62
2022-09-28T04:35:23.146Z,67.20
2022-09-28T04:36:23.189Z,67.63
2022-09-28T04:37:23.130Z,69.13
2022-09-28T04:38:35.800Z,66.95
2022-09-28T04:39:25.089Z,68.85
2022-09-28T04:40:23.080Z,68.18
2022-09-28T04:41:23.034Z,68.11
2022-09-28T04:42:23.071Z,67.00
2022-09-28T04:43:23.006Z,65.52
2022-09-28T04:44:22.995Z,67.77
2022-09-28T04:45:22.979Z,68.01
2022-09-28T04:46:22.978Z,68.91
2022-09-28T04:47:22.971Z,68.99
2022-09-28T04:48:22.919Z,67.17
2022-09-28T04:49:22.913Z,68.72
2022-09-28T04:50:22.887Z,69.70
2022-09-28T04:51:22.871Z,68.86
2022-09-28T04:52:22.894Z,67.86
2022-09-28T04:53:22.848Z,67.86
2022-09-28T04:54:22.810Z,66.89
2022-09-28T04:55:22.798Z,67.31
2022-09-28T04:56:22.788Z,67.73
2022-09-28T04:57:22.772Z,65.94
2022-09-28T04:58:22.808Z,67.91
2022-09-28T04:59:22.737Z,67.99
2022-09-28T05:00:22.741Z,69.05
2022-09-28T05:01:22.781Z,66.40
2022-09-28T05:02:22.714Z,66.38
2022-09-28T05:03:22.705Z,65.02
2022-09-28T05:04:25.937Z,67.36
2022-09-28T05:05:23.642Z,66.71
2022-09-28T05:06:22.632Z,66.20
2022-09-28T05:07:22.594Z,68.74
2022-09-28T05:08:22.645Z,66.75
2022-09-28T05:09:22.559Z,65.92
2022-09-28T05:10:22.549Z,67.97
2022-09-28T05:11:22.517Z,67.81
2022-09-28T05:12:22.504Z,68.30
2022-09-28T05:13:22.531Z,67.02
2022-09-28T05:14:22.495Z,66.93
2022-09-28T05:15:22.498Z,68.18
2022-09-28T05:16:22.491Z,68.37
2022-09-28T05:17:22.439Z,68.93
2022-09-28T05:18:22.476Z,68.82
2022-09-28T05:19:22.393Z,65.24
2022-09-28T05:20:22.385Z,66.04
2022-09-28T05:21:22.368Z,67.69
2022-09-28T05:22:22.339Z,69.28
2022-09-28T05:23:22.344Z,67.78
2022-09-28T05:24:23.317Z,66.95
2022-09-28T05:25:22.298Z,66.87
2022-09-28T05:26:22.277Z,67.39
2022-09-28T05:27:22.277Z,66.72
2022-09-28T05:28:22.257Z,66.91
2022-09-28T05:29:22.225Z,67.14
2022-09-28T05:30:22.194Z,67.13
2022-09-28T05:31:22.270Z,66.13
2022-09-28T05:32:22.223Z,68.59
2022-09-28T05:33:22.184Z,69.17
2022-09-28T05:34:22.220Z,69.30
2022-09-28T05:35:22.161Z,68.40
2022-09-28T05:36:22.114Z,66.52
2022-09-28T05:37:22.088Z,68.38
2022-09-28T05:38:22.116Z,66.81
2022-09-28T05:39:22.068Z,68.29
2022-09-28T05:40:22.080Z,67.30
2022-09-28T05:41:22.013Z,67.59
2022-09-28T05:42:21.998Z,69.03
2022-09-28T05:43:22.184Z,69.14
2022-09-28T05:44:22.009Z,67.15
2022-09-28T05:45:21.955Z,69.06
2022-09-28T05:46:22.118Z,68.13
2022-09-28T05:47:21.930Z,67.66
2022-09-28T05:48:21.983Z,67.67
2022-09-28T05:49:21.888Z,69.16
2022-09-28T05:50:21.854Z,67.82
2022-09-28T05:51:21.859Z,65.73
2022-09-28T05:52:21.834Z,66.41
2022-09-28T05:53:21.845Z,66.25
2022-09-28T05:54:21.787Z,67.71
2022-09-28T05:55:21.783Z,67.86
2022-09-28T05:56:21.759Z,66.50
2022-09-28T05:57:21.740Z,67.70
2022-09-28T05:58:21.759Z,67.53
2022-09-28T05:59:22.066Z,70.16
2022-09-28T06:00:21.730Z,69.40
2022-09-28T06:01:21.689Z,66.43
2022-09-28T06:02:21.747Z,69.51
2022-09-28T06:03:21.726Z,72.27
2022-09-28T06:04:21.633Z,68.74
2022-09-28T06:05:21.605Z,66.62
2022-09-28T06:06:21.608Z,68.14
2022-09-28T06:07:21.579Z,67.45
2022-09-28T06:08:21.576Z,68.55
2022-09-28T06:09:25.707Z,66.24
2022-09-28T06:10:22.549Z,65.32
2022-09-28T06:11:21.507Z,66.02
2022-09-28T06:12:21.497Z,68.37
2022-09-28T06:13:21.500Z,64.48
2022-09-28T06:14:21.456Z,64.86
2022-09-28T06:15:21.451Z,63.37
2022-09-28T06:16:21.437Z,65.75
2022-09-28T06:17:21.414Z,65.00
2022-09-28T06:18:21.427Z,64.11
2022-09-28T06:19:21.376Z,66.23
2022-09-28T06:20:21.368Z,64.92
2022-09-28T06:21:21.318Z,64.44
2022-09-28T06:22:21.323Z,62.63
2022-09-28T06:23:21.316Z,65.82
2022-09-28T06:24:21.270Z,65.34
2022-09-28T06:25:21.268Z,63.53
2022-09-28T06:26:21.241Z,62.99
2022-09-28T06:27:21.243Z,63.57
2022-09-28T06:28:21.239Z,64.63
2022-09-28T06:29:21.216Z,64.39
2022-09-28T06:30:21.177Z,66.26
2022-09-28T06:31:21.227Z,62.76
2022-09-28T06:32:21.138Z,65.05
2022-09-28T06:33:21.169Z,66.27
2022-09-28T06:34:21.120Z,64.97
2022-09-28T06:35:21.084Z,65.46
2022-09-28T06:36:21.090Z,65.72
2022-09-28T06:37:21.049Z,64.01
2022-09-28T06:38:21.065Z,63.56
2022-09-28T06:39:21.013Z,65.67
2022-09-28T06:40:21.050Z,64.38
2022-09-28T06:41:20.984Z,64.19
2022-09-28T06:42:20.975Z,65.63
2022-09-28T06:43:21.015Z,68.66
2022-09-28T06:44:20.956Z,63.95
2022-09-28T06:45:20.914Z,66.54
2022-09-28T06:46:20.982Z,65.55
2022-09-28T06:47:20.885Z,62.93
2022-09-28T06:48:20.923Z,66.03
2022-09-28T06:49:20.848Z,67.48
2022-09-28T06:50:20.834Z,64.50
2022-09-28T06:51:21.815Z,64.20
2022-09-28T06:52:20.800Z,65.41
2022-09-28T06:53:20.849Z,65.68
2022-09-28T06:54:20.775Z,65.81
2022-09-28T06:55:20.821Z,63.68
2022-09-28T06:56:20.799Z,64.50
2022-09-28T06:57:20.721Z,62.67
2022-09-28T06:58:20.740Z,65.68
2022-09-28T06:59:20.686Z,65.39
2022-09-28T07:00:20.674Z,63.70
2022-09-28T07:01:20.756Z,63.52
2022-09-28T07:02:20.704Z,63.30
2022-09-28T07:03:20.654Z,62.06
2022-09-28T07:04:20.592Z,65.78
2022-09-28T07:05:20.577Z,63.38
2022-09-28T07:06:20.577Z,65.19
2022-09-28T07:07:20.554Z,62.13
2022-09-28T07:08:20.552Z,62.08
2022-09-28T07:09:31.886Z,65.68
2022-09-28T07:10:22.510Z,64.25
2022-09-28T07:11:20.475Z,64.68
2022-09-28T07:12:20.492Z,64.19
2022-09-28T07:13:46.283Z,64.85
2022-09-28T07:14:42.658Z,62.46
2022-09-28T07:15:22.496Z,66.25
2022-09-28T07:16:25.770Z,66.63
2022-09-28T07:17:22.480Z,63.57
2022-09-28T07:18:20.515Z,65.36
2022-09-28T07:19:20.352Z,64.14
2022-09-28T07:20:20.348Z,66.83
2022-09-28T07:21:28.777Z,62.43
2022-09-28T07:22:37.634Z,64.06
2022-09-28T07:23:22.382Z,65.22
2022-09-28T07:24:20.488Z,63.16
2022-09-28T07:25:20.251Z,65.42
2022-09-28T07:26:23.611Z,62.71
2022-09-28T07:27:23.445Z,64.22
2022-09-28T07:28:21.223Z,61.61
2022-09-28T07:29:20.191Z,63.58
2022-09-28T07:30:20.169Z,63.41
2022-09-28T07:31:20.195Z,65.03
2022-09-28T07:32:20.167Z,63.61
2022-09-28T07:33:20.136Z,64.33
2022-09-28T07:34:20.180Z,65.18
2022-09-28T07:35:20.058Z,64.13
2022-09-28T07:36:20.062Z,64.21
2022-09-28T07:37:20.036Z,63.51
2022-09-28T07:38:20.045Z,63.41
2022-09-28T07:39:19.991Z,60.22
2022-09-28T07:40:20.046Z,63.69
2022-09-28T07:41:19.958Z,65.04
2022-09-28T07:42:19.955Z,63.14
2022-09-28T07:43:19.970Z,66.05
2022-09-28T07:44:19.913Z,61.25
2022-09-28T07:45:19.894Z,63.30
2022-09-28T07:46:19.918Z,64.38
2022-09-28T07:47:19.863Z,62.28
2022-09-28T07:48:19.889Z,60.86
2022-09-28T07:49:20.005Z,63.70
2022-09-28T07:50:19.819Z,64.78
2022-09-28T07:51:19.822Z,64.96
2022-09-28T07:52:19.779Z,65.30
2022-09-28T07:53:19.790Z,66.81
2022-09-28T07:54:19.736Z,63.77
2022-09-28T07:55:19.736Z,66.42
2022-09-28T07:56:19.708Z,63.83
2022-09-28T07:57:19.729Z,65.34
2022-09-28T07:58:19.721Z,64.80
2022-09-28T07:59:19.674Z,66.38
2022-09-28T08:00:19.645Z,66.99
2022-09-28T08:01:19.702Z,64.58
2022-09-28T08:02:19.632Z,65.67
2022-09-28T08:03:19.632Z,64.97
2022-09-28T08:04:19.565Z,62.86
2022-09-28T08:05:19.550Z,64.77
2022-09-28T08:06:19.525Z,62.43
2022-09-28T08:07:22.900Z,63.75
2022-09-28T08:08:20.542Z,64.86
2022-09-28T08:09:19.493Z,64.53
2022-09-28T08:10:19.474Z,66.15
2022-09-28T08:11:19.482Z,64.07
2022-09-28T08:12:19.434Z,64.45
2022-09-28T08:13:20.443Z,64.95
2022-09-28T08:14:19.412Z,62.79
2022-09-28T08:15:19.382Z,63.90
2022-09-28T08:16:19.465Z,63.21
2022-09-28T08:17:19.372Z,66.25
2022-09-28T08:18:19.362Z,64.39
2022-09-28T08:19:19.527Z,66.42
2022-09-28T08:20:19.307Z,66.77
2022-09-28T08:21:19.265Z,64.26
2022-09-28T08:22:19.262Z,63.46
2022-09-28T08:23:19.265Z,66.23
2022-09-28T08:24:19.361Z,65.43
2022-09-28T08:25:19.196Z,64.92
2022-09-28T08:26:19.199Z,65.24
2022-09-28T08:27:19.159Z,63.99
2022-09-28T08:28:19.148Z,64.62
2022-09-28T08:29:19.153Z,64.87
2022-09-28T08:30:19.120Z,63.69
2022-09-28T08:31:19.146Z,62.12
2022-09-28T08:32:19.077Z,63.56
2022-09-28T08:33:19.109Z,64.95
2022-09-28T08:34:19.200Z,65.54
2022-09-28T08:35:19.034Z,64.51
2022-09-28T08:36:19.020Z,65.92
2022-09-28T08:37:19.003Z,66.18
2022-09-28T08:38:18.966Z,64.71
2022-09-28T08:39:18.995Z,65.10
2022-09-28T08:40:19.019Z,66.26
2022-09-28T08:41:18.939Z,66.22
2022-09-28T08:42:18.907Z,64.72
2022-09-28T08:43:18.907Z,65.82
2022-09-28T08:44:18.980Z,64.90
2022-09-28T08:45:18.862Z,65.81
2022-09-28T08:46:21.623Z,64.97
2022-09-28T08:47:18.840Z,63.79
2022-09-28T08:48:18.838Z,63.91
2022-09-28T08:49:25.500Z,65.89
2022-09-28T08:50:20.828Z,65.63
2022-09-28T08:51:18.814Z,64.83
2022-09-28T08:52:18.772Z,67.25
2022-09-28T08:53:18.749Z,65.96
2022-09-28T08:54:18.814Z,67.03
2022-09-28T08:55:18.688Z,67.71
2022-09-28T08:56:18.672Z,66.25
2022-09-28T08:57:18.672Z,67.18
2022-09-28T08:58:18.642Z,67.43
2022-09-28T08:59:18.656Z,66.87
2022-09-28T09:00:18.607Z,66.28
2022-09-28T09:01:18.613Z,66.25
2022-09-28T09:02:18.618Z,66.15
2022-09-28T09:03:18.574Z,64.43
2022-09-28T09:04:18.742Z,65.29
2022-09-28T09:05:18.530Z,66.67
2022-09-28T09:06:18.793Z,63.79
2022-09-28T09:07:19.489Z,64.38
2022-09-28T09:08:18.478Z,61.92
2022-09-28T09:09:18.506Z,64.11
2022-09-28T09:10:18.461Z,63.83
2022-09-28T09:11:18.424Z,63.24
2022-09-28T09:12:18.453Z,60.92
2022-09-28T09:13:18.398Z,62.58
2022-09-28T09:14:18.617Z,60.13
2022-09-28T09:15:18.370Z,61.64
2022-09-28T09:16:18.390Z,62.30
2022-09-28T09:17:18.383Z,61.27
2022-09-28T09:18:20.108Z,62.05
2022-09-28T09:19:19.391Z,59.92
2022-09-28T09:20:18.277Z,60.87
2022-09-28T09:21:18.281Z,61.09
2022-09-28T09:22:18.249Z,58.47
2022-09-28T09:23:18.259Z,60.91
2022-09-28T09:24:18.356Z,58.93
2022-09-28T09:25:18.252Z,61.77
2022-09-28T09:26:22.556Z,62.71
2022-09-28T09:27:20.189Z,61.36
2022-09-28T09:28:18.169Z,62.94
2022-09-28T09:29:18.186Z,61.39
2022-09-28T09:30:20.167Z,62.86
2022-09-28T09:31:22.581Z,62.86
2022-09-28T09:32:19.122Z,62.01
2022-09-28T09:33:18.064Z,62.07
2022-09-28T09:34:18.211Z,62.63
2022-09-28T09:35:19.137Z,62.28
2022-09-28T09:36:18.075Z,61.12
2022-09-28T09:37:18.005Z,60.25
2022-09-28T09:38:18.000Z,63.29
2022-09-28T09:39:18.021Z,62.06
2022-09-28T09:40:18.079Z,61.71
2022-09-28T09:41:17.960Z,61.11
2022-09-28T09:42:17.931Z,61.49
2022-09-28T09:43:17.935Z,63.07
2022-09-28T09:44:18.011Z,62.40
2022-09-28T09:45:17.898Z,65.75
2022-09-28T09:46:18.158Z,65.03
2022-09-28T09:47:17.848Z,63.12
2022-09-28T09:48:17.819Z,64.77
2022-09-28T09:49:17.867Z,66.51
2022-09-28T09:50:17.791Z,64.23
2022-09-28T09:51:17.780Z,64.33
2022-09-28T09:52:17.776Z,63.51
2022-09-28T09:53:17.748Z,63.48
2022-09-28T09:54:19.034Z,62.07
2022-09-28T09:55:17.724Z,64.04
2022-09-28T09:56:17.716Z,63.15
2022-09-28T09:57:17.688Z,62.07
2022-09-28T09:58:17.719Z,62.47
2022-09-28T09:59:17.774Z,62.22
2022-09-28T10:00:17.634Z,60.80
2022-09-28T10:01:17.657Z,62.34
2022-09-28T10:02:17.640Z,61.45
2022-09-28T10:03:17.592Z,63.88
2022-09-28T10:04:17.599Z,64.08
2022-09-28T10:05:17.558Z,61.28
2022-09-28T10:06:17.542Z,63.24
2022-09-28T10:07:17.524Z,61.06
2022-09-28T10:08:17.520Z,61.27
2022-09-28T10:09:17.576Z,61.30
2022-09-28T10:10:17.473Z,61.51
2022-09-28T10:11:17.454Z,61.05
2022-09-28T10:12:17.457Z,62.34
2022-09-28T10:13:17.418Z,63.65
2022-09-28T10:14:17.460Z,61.08
2022-09-28T10:15:17.429Z,63.82
2022-09-28T10:16:17.413Z,62.35
2022-09-28T10:17:17.356Z,59.07
2022-09-28T10:18:17.340Z,63.78
2022-09-28T10:19:17.497Z,62.16
2022-09-28T10:20:17.378Z,63.07
2022-09-28T10:21:17.292Z,63.65
2022-09-28T10:22:17.277Z,61.69
2022-09-28T10:23:17.331Z,63.23
2022-09-28T10:24:17.284Z,64.24
2022-09-28T10:25:17.233Z,65.27
2022-09-28T10:26:18.737Z,63.90
2022-09-28T10:27:17.212Z,66.19
2022-09-28T10:28:17.176Z,65.27
2022-09-28T10:29:17.341Z,66.53
2022-09-28T10:30:17.215Z,64.37
2022-09-28T10:31:17.138Z,65.73
2022-09-28T10:32:17.124Z,67.19
2022-09-28T10:33:17.109Z,66.10
2022-09-28T10:34:17.244Z,65.63
2022-09-28T10:35:17.068Z,65.94
2022-09-28T10:36:17.052Z,66.62
2022-09-28T10:37:17.039Z,66.32
2022-09-28T10:38:17.037Z,65.78
2022-09-28T10:39:17.063Z,67.16
2022-09-28T10:40:17.099Z,66.30
2022-09-28T10:41:16.976Z,65.81
2022-09-28T10:42:16.943Z,65.47
2022-09-28T10:43:16.944Z,66.36
2022-09-28T10:44:16.937Z,64.62
2022-09-28T10:45:16.886Z,65.04
2022-09-28T10:46:16.922Z,66.77
2022-09-28T10:47:16.854Z,67.01
2022-09-28T10:48:16.833Z,65.38
2022-09-28T10:49:16.857Z,67.28
2022-09-28T10:50:16.833Z,65.23
2022-09-28T10:51:16.787Z,65.84
2022-09-28T10:52:16.768Z,66.10
2022-09-28T10:53:16.756Z,66.33
2022-09-28T10:54:16.777Z,67.42
2022-09-28T10:55:16.732Z,65.92
2022-09-28T10:56:16.692Z,67.17
2022-09-28T10:57:16.685Z,67.37
2022-09-28T10:58:16.673Z,65.93
2022-09-28T10:59:16.693Z,67.53
2022-09-28T11:00:16.741Z,66.84
2022-09-28T11:01:16.718Z,66.18
2022-09-28T11:02:16.799Z,67.74
2022-09-28T11:03:16.587Z,66.59
2022-09-28T11:04:16.645Z,67.05
2022-09-28T11:05:16.552Z,67.48
2022-09-28T11:06:16.545Z,66.62
2022-09-28T11:07:17.356Z,66.79
2022-09-28T11:08:17.499Z,68.38
2022-09-28T11:09:16.589Z,68.22
2022-09-28T11:10:16.534Z,68.33
2022-09-28T11:11:16.454Z,66.50
2022-09-28T11:12:16.438Z,67.19
2022-09-28T11:13:16.410Z,66.85
2022-09-28T11:14:16.444Z,66.76
2022-09-28T11:15:16.384Z,66.37
2022-09-28T11:16:16.447Z,68.45
2022-09-28T11:17:16.340Z,67.15
2022-09-28T11:18:16.326Z,66.41
2022-09-28T11:19:17.428Z,66.63
2022-09-28T11:20:16.369Z,64.77
2022-09-28T11:21:16.290Z,65.85
2022-09-28T11:22:16.260Z,63.87
2022-09-28T11:23:16.306Z,66.44
2022-09-28T11:24:19.089Z,64.86
2022-09-28T11:25:17.241Z,65.16
2022-09-28T11:26:18.565Z,64.09
2022-09-28T11:27:17.216Z,65.92
2022-09-28T11:28:16.161Z,64.19
2022-09-28T11:29:16.192Z,66.36
2022-09-28T11:30:16.240Z,64.67
2022-09-28T11:31:16.153Z,65.07
2022-09-28T11:32:16.242Z,64.86
2022-09-28T11:33:16.083Z,65.84
2022-09-28T11:34:16.164Z,65.70
2022-09-28T11:35:16.063Z,65.63
2022-09-28T11:36:16.036Z,64.96
2022-09-28T11:37:16.028Z,63.22
2022-09-28T11:38:16.014Z,65.68
2022-09-28T11:39:16.116Z,64.31
2022-09-28T11:40:16.126Z,64.45
2022-09-28T11:41:15.948Z,65.28
2022-09-28T11:42:16.630Z,66.08
2022-09-28T11:43:17.044Z,65.73
2022-09-28T11:44:16.079Z,66.88
2022-09-28T11:45:15.962Z,66.63
2022-09-28T11:46:15.995Z,66.25
2022-09-28T11:47:15.867Z,65.86
2022-09-28T11:48:15.944Z,64.62
2022-09-28T11:49:15.865Z,65.03
2022-09-28T11:50:18.970Z,63.61
2022-09-28T11:51:16.794Z,67.05
2022-09-28T11:52:15.860Z,66.57
2022-09-28T11:53:15.761Z,66.38
2022-09-28T11:54:15.896Z,65.05
2022-09-28T11:55:15.718Z,65.18
2022-09-28T11:56:15.712Z,64.82
2022-09-28T11:57:15.684Z,65.85
2022-09-28T11:58:15.706Z,66.19
2022-09-28T11:59:15.688Z,65.01
2022-09-28T12:00:15.723Z,66.03
2022-09-28T12:01:18.930Z,65.10
2022-09-28T12:02:16.759Z,64.30
2022-09-28T12:03:15.688Z,66.99
2022-09-28T12:04:15.669Z,66.69
2022-09-28T12:05:20.515Z,67.07
2022-09-28T12:06:17.548Z,64.49
2022-09-28T12:07:15.536Z,66.03
2022-09-28T12:08:15.500Z,66.17
2022-09-28T12:09:15.590Z,65.24
2022-09-28T12:10:15.479Z,64.69
2022-09-28T12:11:15.479Z,64.16
2022-09-28T12:12:15.445Z,67.10
2022-09-28T12:13:15.438Z,66.79
2022-09-28T12:14:15.407Z,65.24
2022-09-28T12:15:15.478Z,63.62
2022-09-28T12:16:45.244Z,65.16
2022-09-28T12:17:20.111Z,63.77
2022-09-28T12:18:16.410Z,64.26
2022-09-28T12:19:15.532Z,65.48
2022-09-28T12:20:15.689Z,65.79
2022-09-28T12:21:15.301Z,65.21
2022-09-28T12:22:15.297Z,64.99
2022-09-28T12:23:15.280Z,65.53
2022-09-28T12:24:15.247Z,65.68
2022-09-28T12:25:15.266Z,66.07
2022-09-28T12:26:15.224Z,64.63
2022-09-28T12:27:15.189Z,64.59
2022-09-28T12:28:15.168Z,66.10
2022-09-28T12:29:15.226Z,65.77
2022-09-28T12:30:15.208Z,66.99
2022-09-28T12:31:15.180Z,65.72
2022-09-28T12:32:15.167Z,64.81
2022-09-28T12:33:15.094Z,67.89
2022-09-28T12:34:15.078Z,67.28
2022-09-28T12:35:15.146Z,67.15
2022-09-28T12:36:15.045Z,67.45
2022-09-28T12:37:15.032Z,66.73
2022-09-28T12:38:14.997Z,65.92
2022-09-28T12:39:21.665Z,66.08
2022-09-28T12:40:17.085Z,63.26
2022-09-28T12:41:15.001Z,65.54
2022-09-28T12:42:14.956Z,65.62
2022-09-28T12:43:14.930Z,66.22
2022-09-28T12:44:14.915Z,64.73
2022-09-28T12:45:14.930Z,66.19
2022-09-28T12:46:14.905Z,66.53
2022-09-28T12:47:14.910Z,66.35
2022-09-28T12:48:14.846Z,66.92
2022-09-28T12:51:16.794Z,65.26
2022-09-28T12:52:14.789Z,65.75
2022-09-28T12:53:14.809Z,66.36
2022-09-28T12:54:14.866Z,66.27